Aviation Digital Data Service (ADDS)

Output produced by TAFs form (2311 UTC 15 July 2018)
found at http://www.aviationweather.gov/adds/tafs/
 
METAR text: RJCA 152230Z 25007KT 9999 FEW010 BKN020 BKN035 19/15 Q1008 RMK 1ST010 5CU020 6CU035 A2977
Conditions at: RJCA (ASAHIKAWA (JASDF, JP) observed 2230 UTC 15 July 2018
Temperature: 19.0°C (66°F)
Dewpoint: 15.0°C (59°F) [RH = 78%]
Pressure (altimeter): 29.76 inches Hg (1008.0 mb)
Winds: from the WSW (250 degrees) at 8 MPH (7 knots; 3.6 m/s)
Visibility: 6 or more miles (10+ km)
Ceiling: 2000 feet AGL
Clouds: few clouds at 1000 feet AGL
broken clouds at 2000 feet AGL
broken clouds at 3500 feet AGL
Weather: no significant weather observed at this time